Time;durP1;ratioP1;P1;durP2;ratioP2;P2;SDS_P1;SDS_P2;PMS_P1;PMS_P2;Temp;Humidity;BMP_temperature;BMP_pressure;BME280_temperature;BME280_humidity;BME280_pressure;Samples;Min_cycle;Max_cycle;Signal;HPM_P1;HPM_P2
2022/01/06 00:00:45;;;;;;;12.63;9.13;;;5.40;99.90;;;;;;5024680;28;20422;-68
2022/01/06 00:03:10;;;;;;;18.73;10.53;;;5.30;99.90;;;;;;5023051;28;20219;-69
2022/01/06 00:05:36;;;;;;;16.73;10.80;;;5.30;99.90;;;;;;5015678;28;20179;-68
2022/01/06 00:08:02;;;;;;;18.17;11.17;;;5.20;99.90;;;;;;5006209;28;20282;-68
2022/01/06 00:10:29;;;;;;;18.43;11.43;;;5.10;99.90;;;;;;4992239;28;20577;-68
2022/01/06 00:15:57;;;;;;;26.53;12.67;;;5.30;99.90;;;;;;4993719;28;20419;-69
2022/01/06 00:18:44;;;;;;;18.07;10.47;;;5.40;99.90;;;;;;4999832;28;20583;-69
2022/01/06 00:23:54;;;;;;;18.67;10.50;;;5.50;99.90;;;;;;5012653;28;20449;-69
2022/01/06 00:26:19;;;;;;;18.90;11.10;;;5.50;99.90;;;;;;5012293;28;20418;-69
2022/01/06 00:28:45;;;;;;;19.50;11.20;;;5.60;99.90;;;;;;4994599;28;20372;-69
2022/01/06 00:31:10;;;;;;;23.37;10.80;;;5.70;99.90;;;;;;5013165;28;20257;-69
2022/01/06 00:33:36;;;;;;;20.27;10.90;;;5.80;99.90;;;;;;5012970;28;20290;-68
2022/01/06 00:36:01;;;;;;;15.30;11.40;;;5.80;99.90;;;;;;5012751;28;20193;-69
2022/01/06 00:38:27;;;;;;;20.20;13.13;;;5.80;99.90;;;;;;5013382;28;20203;-68
2022/01/06 00:40:53;;;;;;;19.80;10.70;;;5.60;99.90;;;;;;5013226;28;20179;-69
2022/01/06 00:43:19;;;;;;;25.30;11.13;;;5.60;99.90;;;;;;5013561;28;20719;-68
2022/01/06 00:45:45;;;;;;;18.70;10.30;;;5.50;99.90;;;;;;5013133;28;20422;-68
2022/01/06 00:48:10;;;;;;;14.30;9.90;;;5.60;99.90;;;;;;5013279;28;20198;-68
2022/01/06 00:50:41;;;;;;;15.77;10.40;;;5.70;99.90;;;;;;4996870;28;20563;-69
2022/01/06 00:53:07;;;;;;;17.90;10.80;;;5.80;99.90;;;;;;5016057;28;20191;-69
2022/01/06 00:55:34;;;;;;;19.27;10.67;;;5.90;99.90;;;;;;5016512;28;20766;-69
2022/01/06 00:58:00;;;;;;;19.70;11.20;;;5.90;99.90;;;;;;5017462;28;20775;-69
2022/01/06 01:00:29;;;;;;;13.77;9.83;;;6.00;99.90;;;;;;5018485;28;20429;-68
2022/01/06 01:02:55;;;;;;;15.20;9.67;;;5.90;99.90;;;;;;5020742;28;20906;-68
2022/01/06 01:05:22;;;;;;;19.37;12.57;;;6.00;99.90;;;;;;5005674;28;20931;-69
2022/01/06 01:07:47;;;;;;;20.27;10.60;;;6.00;99.90;;;;;;5005981;28;20441;-69
2022/01/06 01:10:14;;;;;;;19.17;10.70;;;5.80;99.90;;;;;;5023132;28;20446;-69
2022/01/06 01:12:45;;;;;;;20.37;11.63;;;5.80;99.90;;;;;;5019107;28;20171;-68
2022/01/06 01:15:18;;;;;;;21.60;10.33;;;5.50;99.90;;;;;;5017436;28;20415;-68
2022/01/06 01:17:45;;;;;;;20.70;10.60;;;5.30;99.90;;;;;;5017467;28;20473;-69
2022/01/06 01:20:11;;;;;;;21.50;12.10;;;5.30;99.90;;;;;;5017526;28;20552;-68
2022/01/06 01:22:36;;;;;;;20.47;12.20;;;5.40;99.90;;;;;;5017147;28;20457;-69
2022/01/06 01:25:02;;;;;;;15.47;10.97;;;5.50;99.90;;;;;;5017663;28;20194;-69
2022/01/06 01:27:34;;;;;;;17.80;12.30;;;5.40;99.90;;;;;;5017113;28;20187;-69
2022/01/06 01:30:04;;;;;;;16.97;10.90;;;5.40;99.90;;;;;;5017561;28;20429;-67
2022/01/06 01:32:34;;;;;;;20.13;12.30;;;5.10;99.90;;;;;;4998560;28;20939;-68
2022/01/06 01:35:01;;;;;;;24.10;11.70;;;5.30;99.90;;;;;;5014898;28;20508;-69
2022/01/06 01:37:31;;;;;;;21.97;11.00;;;5.30;99.90;;;;;;5014936;28;20429;-68
2022/01/06 01:39:57;;;;;;;21.60;12.63;;;5.20;99.90;;;;;;5015528;28;20425;-68
2022/01/06 01:42:23;;;;;;;21.00;12.17;;;5.10;99.90;;;;;;5015476;28;20816;-68
2022/01/06 01:44:51;;;;;;;29.13;11.80;;;5.10;99.90;;;;;;5015374;28;20994;-68
2022/01/06 01:47:27;;;;;;;21.33;13.00;;;5.10;99.90;;;;;;5015088;28;20451;-68
2022/01/06 01:49:57;;;;;;;16.00;10.70;;;5.10;99.90;;;;;;5014703;28;20472;-68
2022/01/06 01:52:22;;;;;;;23.90;11.93;;;5.10;99.90;;;;;;5015193;28;20529;-68
2022/01/06 01:54:48;;;;;;;24.60;11.43;;;5.20;99.90;;;;;;5014553;28;20924;-68
2022/01/06 01:57:14;;;;;;;21.13;10.03;;;5.10;99.90;;;;;;5010716;28;20240;-68
2022/01/06 01:59:39;;;;;;;23.87;10.70;;;5.20;99.90;;;;;;5023992;28;20579;-68
2022/01/06 02:02:05;;;;;;;20.40;11.20;;;5.20;99.90;;;;;;5023664;28;20636;-68
2022/01/06 02:04:30;;;;;;;19.97;10.70;;;5.10;99.90;;;;;;4996500;28;20175;-68
2022/01/06 02:06:56;;;;;;;20.53;10.07;;;5.10;99.90;;;;;;5016729;28;20263;-68
2022/01/06 02:09:22;;;;;;;20.73;11.50;;;5.00;99.90;;;;;;5020452;28;20207;-68
2022/01/06 02:11:48;;;;;;;26.20;12.40;;;5.00;99.90;;;;;;5014763;28;20197;-68
2022/01/06 02:14:13;;;;;;;19.60;11.13;;;5.00;99.90;;;;;;5009401;28;20205;-68
2022/01/06 02:16:39;;;;;;;23.50;11.23;;;5.10;99.90;;;;;;5004647;28;20417;-67
2022/01/06 02:19:05;;;;;;;18.67;11.57;;;5.10;99.90;;;;;;5015111;28;20203;-68
2022/01/06 02:21:30;;;;;;;16.77;10.33;;;5.10;99.90;;;;;;5014718;28;20662;-68
2022/01/06 02:23:56;;;;;;;21.50;10.47;;;5.10;99.90;;;;;;5015243;28;20252;-67
2022/01/06 02:26:22;;;;;;;21.37;11.20;;;4.90;99.90;;;;;;5018705;28;20217;-68
2022/01/06 02:28:47;;;;;;;20.70;11.53;;;4.80;99.90;;;;;;5009590;28;20315;-69
2022/01/06 02:31:13;;;;;;;16.10;10.20;;;4.80;99.90;;;;;;4995187;28;20639;-68
2022/01/06 02:33:39;;;;;;;17.87;10.20;;;4.70;99.90;;;;;;4995023;28;20209;-68
2022/01/06 02:36:05;;;;;;;16.13;10.00;;;4.60;99.90;;;;;;4978076;28;20186;-68
2022/01/06 02:38:30;;;;;;;16.20;9.97;;;4.70;99.90;;;;;;4994674;28;20203;-68
2022/01/06 02:40:56;;;;;;;18.20;9.70;;;4.60;99.90;;;;;;4995148;28;20480;-68
2022/01/06 02:43:24;;;;;;;21.10;10.40;;;4.50;99.90;;;;;;4994909;28;20268;-68
2022/01/06 02:45:50;;;;;;;21.67;10.60;;;4.60;99.90;;;;;;4976776;28;20431;-68
2022/01/06 02:48:16;;;;;;;22.83;9.13;;;4.50;99.90;;;;;;4994996;28;20441;-68
2022/01/06 02:50:45;;;;;;;20.30;9.60;;;4.50;99.90;;;;;;4997096;28;20430;-67
2022/01/06 02:53:12;;;;;;;17.03;8.20;;;4.60;99.90;;;;;;5013892;28;20217;-68
2022/01/06 02:55:50;;;;;;;11.60;6.73;;;4.70;99.90;;;;;;5012731;28;20832;-68
2022/01/06 02:58:17;;;;;;;19.27;8.43;;;4.70;99.90;;;;;;5014291;28;20448;-68
2022/01/06 03:00:43;;;;;;;9.87;7.27;;;4.70;99.90;;;;;;5014806;28;20465;-67
2022/01/06 03:03:09;;;;;;;11.67;7.03;;;4.80;99.90;;;;;;5014426;28;20441;-68
2022/01/06 03:05:34;;;;;;;14.67;6.77;;;4.90;99.90;;;;;;5013810;28;20433;-68
2022/01/06 03:08:00;;;;;;;16.43;5.70;;;4.70;99.90;;;;;;5013856;28;20214;-68
2022/01/06 03:10:27;;;;;;;10.00;6.33;;;4.70;99.90;;;;;;4996324;28;20184;-67
2022/01/06 03:12:53;;;;;;;19.53;7.73;;;4.60;99.90;;;;;;5013230;28;20197;-68
2022/01/06 03:15:21;;;;;;;16.83;6.10;;;4.70;99.90;;;;;;5023190;28;20449;-68
2022/01/06 03:17:52;;;;;;;14.70;6.53;;;4.80;99.90;;;;;;5002749;28;20448;-67
2022/01/06 03:20:21;;;;;;;17.53;6.93;;;4.90;99.90;;;;;;4993704;28;20781;-68
2022/01/06 03:22:46;;;;;;;13.03;6.47;;;5.00;99.90;;;;;;4994041;28;20453;-68
2022/01/06 03:25:14;;;;;;;13.43;6.33;;;5.10;99.90;;;;;;4993817;28;20460;-68
2022/01/06 03:27:40;;;;;;;15.53;6.07;;;5.20;99.90;;;;;;4994328;28;20755;-68
2022/01/06 03:30:09;;;;;;;12.10;6.73;;;5.10;99.90;;;;;;5013521;28;20444;-68
2022/01/06 03:32:34;;;;;;;12.47;5.93;;;5.20;99.90;;;;;;5014445;28;20418;-69
2022/01/06 03:35:00;;;;;;;14.20;6.87;;;5.10;99.90;;;;;;5002249;28;20976;-68
2022/01/06 03:37:26;;;;;;;12.27;5.43;;;5.10;99.90;;;;;;4992894;28;20187;-68
2022/01/06 03:39:51;;;;;;;16.87;6.67;;;5.00;99.90;;;;;;4993246;28;21010;-68
2022/01/06 03:42:17;;;;;;;17.47;5.93;;;4.90;99.90;;;;;;4993227;28;20188;-68
2022/01/06 03:44:43;;;;;;;19.43;6.40;;;4.90;99.90;;;;;;4993076;28;20178;-67
2022/01/06 03:47:08;;;;;;;13.63;5.73;;;4.90;99.90;;;;;;4993332;28;20650;-66
2022/01/06 03:49:34;;;;;;;16.10;6.17;;;5.00;99.90;;;;;;4975823;28;20200;-68
2022/01/06 03:51:59;;;;;;;14.43;6.07;;;5.10;99.90;;;;;;5006616;28;20646;-68
2022/01/06 03:54:25;;;;;;;14.50;5.27;;;5.00;99.90;;;;;;4995202;28;20226;-67
2022/01/06 03:56:50;;;;;;;16.73;5.50;;;4.80;99.90;;;;;;5012186;28;20626;-68
2022/01/06 03:59:17;;;;;;;9.27;4.37;;;4.80;99.90;;;;;;4995002;28;20212;-67
2022/01/06 04:01:43;;;;;;;13.27;4.80;;;4.70;99.90;;;;;;5012379;28;20198;-68
2022/01/06 04:04:09;;;;;;;13.03;5.50;;;4.80;99.90;;;;;;5012642;28;20437;-68
2022/01/06 04:06:34;;;;;;;14.83;5.23;;;4.80;99.90;;;;;;5012231;28;20427;-68
2022/01/06 04:09:00;;;;;;;12.60;4.80;;;4.80;99.90;;;;;;4992789;28;20444;-67
2022/01/06 04:11:25;;;;;;;18.93;5.33;;;5.00;99.90;;;;;;4994611;28;20195;-67
2022/01/06 04:13:51;;;;;;;11.10;4.97;;;5.10;99.90;;;;;;5012505;28;20211;-67
2022/01/06 04:16:17;;;;;;;9.60;4.67;;;5.00;99.90;;;;;;5012204;28;20675;-68
2022/01/06 04:18:43;;;;;;;13.80;4.60;;;5.00;99.90;;;;;;5012511;28;20281;-68
2022/01/06 04:21:10;;;;;;;15.40;4.87;;;5.00;99.90;;;;;;5012595;28;20429;-67
2022/01/06 04:23:35;;;;;;;11.10;4.70;;;5.00;99.90;;;;;;5012194;28;20425;-67
2022/01/06 04:26:01;;;;;;;12.10;4.17;;;5.00;99.90;;;;;;5012294;28;20410;-68
2022/01/06 04:28:27;;;;;;;9.33;4.00;;;5.00;99.90;;;;;;5036462;22;20229;-70
2022/01/06 04:30:53;;;;;;;11.47;4.50;;;5.00;99.90;;;;;;5022127;28;20417;-69
2022/01/06 04:33:18;;;;;;;7.00;4.23;;;4.90;99.90;;;;;;5030921;28;20675;-68
2022/01/06 04:35:44;;;;;;;10.63;4.40;;;4.80;99.90;;;;;;5034882;28;20192;-68
2022/01/06 04:38:10;;;;;;;13.60;4.93;;;4.80;99.90;;;;;;5035177;28;20408;-70
2022/01/06 04:40:36;;;;;;;7.97;3.97;;;4.80;99.90;;;;;;5035141;28;20166;-68
2022/01/06 04:43:01;;;;;;;12.80;4.33;;;4.90;99.90;;;;;;5035129;28;20177;-68
2022/01/06 04:45:27;;;;;;;10.50;4.23;;;4.80;99.90;;;;;;5034885;28;20186;-68
2022/01/06 04:47:53;;;;;;;14.13;4.83;;;4.80;99.90;;;;;;5034808;28;20178;-68
2022/01/06 04:50:18;;;;;;;14.03;5.67;;;4.80;99.90;;;;;;5033872;28;20663;-67
2022/01/06 04:52:44;;;;;;;11.00;4.20;;;4.60;99.90;;;;;;5034922;28;20185;-68
2022/01/06 04:55:09;;;;;;;17.60;5.13;;;4.60;99.90;;;;;;5034350;28;20208;-68
2022/01/06 04:57:35;;;;;;;11.93;5.67;;;4.70;99.90;;;;;;5034722;28;20178;-68
2022/01/06 05:00:02;;;;;;;12.33;4.20;;;4.70;99.90;;;;;;5034804;28;20228;-68
2022/01/06 05:02:27;;;;;;;11.47;4.30;;;4.70;99.90;;;;;;5034735;28;20506;-68
2022/01/06 05:04:53;;;;;;;12.50;4.80;;;4.60;99.90;;;;;;5033261;28;21001;-69
2022/01/06 05:07:18;;;;;;;9.47;3.70;;;4.60;99.90;;;;;;5034190;28;20311;-68
2022/01/06 05:09:44;;;;;;;16.80;4.73;;;4.50;99.90;;;;;;5034422;28;20260;-68
2022/01/06 05:12:10;;;;;;;12.30;4.93;;;4.50;99.90;;;;;;5034546;28;20260;-67
2022/01/06 05:14:35;;;;;;;9.30;3.47;;;4.50;99.90;;;;;;5031824;28;20202;-67
2022/01/06 05:17:01;;;;;;;14.17;5.30;;;4.50;99.90;;;;;;5034048;28;20412;-69
2022/01/06 05:19:27;;;;;;;12.07;3.50;;;4.50;99.90;;;;;;5034009;28;20251;-68
2022/01/06 05:21:53;;;;;;;13.10;4.10;;;4.40;99.90;;;;;;5034157;28;20420;-68
2022/01/06 05:24:20;;;;;;;8.30;3.90;;;4.50;99.90;;;;;;5034275;28;20180;-69
2022/01/06 05:26:46;;;;;;;11.73;4.13;;;4.60;99.90;;;;;;5034202;28;20971;-69
2022/01/06 05:29:12;;;;;;;13.37;3.97;;;4.50;99.90;;;;;;5034234;28;20458;-69
2022/01/06 05:31:39;;;;;;;13.43;5.00;;;4.50;99.90;;;;;;5034229;28;20481;-68
2022/01/06 05:34:05;;;;;;;14.53;4.20;;;4.40;99.90;;;;;;5034402;28;20460;-69
2022/01/06 05:36:32;;;;;;;20.33;4.50;;;4.40;99.90;;;;;;5033786;28;20419;-69
2022/01/06 05:38:58;;;;;;;19.83;4.90;;;4.40;99.90;;;;;;5034241;28;20858;-68
2022/01/06 05:41:24;;;;;;;16.53;4.93;;;4.40;99.90;;;;;;5034450;28;20494;-69
2022/01/06 05:43:49;;;;;;;10.50;5.03;;;4.40;99.90;;;;;;5034086;28;21101;-69
2022/01/06 05:46:16;;;;;;;18.07;4.87;;;4.40;99.90;;;;;;5033979;28;20170;-68
2022/01/06 05:48:42;;;;;;;12.20;4.53;;;4.40;99.90;;;;;;5033973;28;20201;-68
2022/01/06 05:51:08;;;;;;;7.27;4.23;;;4.50;99.90;;;;;;5034083;28;20575;-68
2022/01/06 05:53:33;;;;;;;13.60;4.93;;;4.40;99.90;;;;;;5033679;28;20202;-69
2022/01/06 05:55:59;;;;;;;11.20;4.50;;;4.40;99.90;;;;;;5033633;28;20942;-67
2022/01/06 05:58:24;;;;;;;8.27;4.53;;;4.40;99.90;;;;;;5033715;28;20692;-68
2022/01/06 06:00:50;;;;;;;12.70;5.27;;;4.40;99.90;;;;;;5033855;28;20554;-69
2022/01/06 06:03:16;;;;;;;11.33;4.83;;;4.30;99.90;;;;;;5034121;28;20204;-68
2022/01/06 06:05:42;;;;;;;12.93;5.37;;;4.30;99.90;;;;;;5033507;28;20180;-69
2022/01/06 06:08:09;;;;;;;16.30;5.13;;;4.30;99.90;;;;;;5033835;28;20262;-69
2022/01/06 06:10:35;;;;;;;19.77;4.93;;;4.30;99.90;;;;;;5033448;28;20431;-69
2022/01/06 06:13:00;;;;;;;15.57;5.53;;;4.30;99.90;;;;;;5033079;28;20421;-68
2022/01/06 06:15:26;;;;;;;9.83;5.33;;;4.30;99.90;;;;;;5031509;28;20271;-67
2022/01/06 06:17:52;;;;;;;15.70;5.00;;;4.30;99.90;;;;;;5033086;28;20186;-69
2022/01/06 06:20:18;;;;;;;16.37;5.23;;;4.30;99.90;;;;;;5033013;28;20874;-68
2022/01/06 06:22:44;;;;;;;9.20;4.33;;;4.40;99.90;;;;;;5029600;28;20683;-68
2022/01/06 06:25:10;;;;;;;9.37;4.87;;;4.30;99.90;;;;;;5031909;28;20191;-68
2022/01/06 06:27:35;;;;;;;14.10;4.50;;;4.30;99.90;;;;;;5032616;28;20949;-68
2022/01/06 06:30:02;;;;;;;7.17;4.30;;;4.20;99.90;;;;;;5016071;28;20560;-66
2022/01/06 06:32:28;;;;;;;11.00;4.90;;;4.30;99.90;;;;;;5031563;28;20677;-65
2022/01/06 06:34:54;;;;;;;10.50;4.53;;;4.30;99.90;;;;;;5032990;28;20462;-68
2022/01/06 06:37:19;;;;;;;14.70;5.83;;;4.40;99.90;;;;;;5026698;28;20441;-69
2022/01/06 06:39:45;;;;;;;13.80;5.30;;;4.30;99.90;;;;;;5030673;28;20213;-69
2022/01/06 06:42:10;;;;;;;15.20;5.23;;;4.30;99.90;;;;;;5013635;28;20182;-68
2022/01/06 06:44:36;;;;;;;11.13;5.47;;;4.40;99.90;;;;;;5033102;28;20209;-68
2022/01/06 06:47:02;;;;;;;9.90;4.73;;;4.40;99.90;;;;;;5023580;28;20192;-69
2022/01/06 06:49:29;;;;;;;13.97;5.00;;;4.50;99.90;;;;;;5030470;28;20201;-69
2022/01/06 06:51:54;;;;;;;13.20;5.10;;;4.50;99.90;;;;;;5014753;28;20179;-68
2022/01/06 06:54:20;;;;;;;16.40;5.70;;;4.50;99.90;;;;;;5030243;28;20486;-69
2022/01/06 06:56:46;;;;;;;8.33;5.17;;;4.50;99.90;;;;;;5029847;28;21129;-68
2022/01/06 06:59:11;;;;;;;11.90;6.23;;;4.40;99.90;;;;;;5014781;28;20342;-69
2022/01/06 07:01:37;;;;;;;13.07;6.00;;;4.40;99.90;;;;;;5032552;28;20180;-68
2022/01/06 07:04:02;;;;;;;11.40;5.87;;;4.40;99.90;;;;;;5032401;28;20182;-70
2022/01/06 07:06:28;;;;;;;10.03;5.03;;;4.40;99.90;;;;;;5025595;28;20196;-69
2022/01/06 07:08:53;;;;;;;10.67;6.07;;;4.30;99.90;;;;;;5027028;28;20587;-67
2022/01/06 07:11:22;;;;;;;15.20;5.50;;;4.40;99.90;;;;;;5015624;28;20213;-67
2022/01/06 07:13:48;;;;;;;11.77;5.87;;;4.40;99.90;;;;;;5022701;28;20229;-68
2022/01/06 07:16:13;;;;;;;11.03;5.50;;;4.30;99.90;;;;;;5027479;28;21003;-67
2022/01/06 07:18:39;;;;;;;14.63;6.50;;;4.30;99.90;;;;;;5025540;28;20460;-67
2022/01/06 07:21:05;;;;;;;23.00;6.27;;;4.40;99.90;;;;;;5028424;28;20247;-67
2022/01/06 07:23:30;;;;;;;14.70;6.37;;;4.40;99.90;;;;;;5027704;28;20249;-68
2022/01/06 07:25:56;;;;;;;16.33;6.20;;;4.40;99.90;;;;;;5027780;28;20241;-67
2022/01/06 07:28:21;;;;;;;15.10;6.93;;;4.40;99.90;;;;;;5026796;28;20223;-67
2022/01/06 07:30:47;;;;;;;16.47;7.37;;;4.50;99.90;;;;;;5023015;28;20255;-68
2022/01/06 07:33:13;;;;;;;10.77;5.50;;;4.50;99.90;;;;;;5028591;28;20223;-68
2022/01/06 07:35:38;;;;;;;14.17;6.20;;;4.60;99.90;;;;;;5029546;28;20236;-68
2022/01/06 07:38:04;;;;;;;13.00;7.07;;;4.60;99.90;;;;;;5030193;28;20222;-71
2022/01/06 07:40:29;;;;;;;10.90;5.77;;;4.60;99.90;;;;;;5032133;28;20217;-67
2022/01/06 07:42:55;;;;;;;13.53;6.50;;;4.60;99.90;;;;;;5040724;28;20245;-69
2022/01/06 07:45:20;;;;;;;11.63;6.33;;;4.70;99.90;;;;;;5038857;28;20666;-69
2022/01/06 07:48:02;;;;;;;20.57;7.30;;;4.60;99.90;;;;;;5038992;28;20197;-67
2022/01/06 07:50:30;;;;;;;15.27;6.83;;;4.60;99.90;;;;;;5030116;28;20281;-68
2022/01/06 07:52:56;;;;;;;14.70;7.97;;;4.60;99.90;;;;;;5027332;28;20425;-68
2022/01/06 07:55:21;;;;;;;24.83;9.00;;;4.60;99.90;;;;;;5028665;28;20595;-68
2022/01/06 07:57:47;;;;;;;19.97;8.47;;;4.60;99.90;;;;;;5028515;28;21259;-68
2022/01/06 08:00:13;;;;;;;19.90;9.10;;;4.60;99.90;;;;;;5028732;28;20202;-68
2022/01/06 08:02:39;;;;;;;12.23;7.20;;;4.70;99.90;;;;;;5027778;28;20803;-69
2022/01/06 08:05:09;;;;;;;15.90;7.50;;;4.80;99.90;;;;;;5028515;28;20443;-68
2022/01/06 08:07:34;;;;;;;17.57;8.30;;;4.80;99.90;;;;;;5028344;28;20213;-68
2022/01/06 08:10:00;;;;;;;14.93;7.90;;;4.70;99.90;;;;;;5028124;28;20452;-68
2022/01/06 08:12:25;;;;;;;21.80;9.43;;;4.70;99.90;;;;;;5028466;28;20214;-69
2022/01/06 08:14:50;;;;;;;12.50;7.80;;;4.80;99.90;;;;;;5028265;28;20209;-67
2022/01/06 08:17:16;;;;;;;18.93;9.00;;;4.90;99.90;;;;;;5027405;28;20186;-68
2022/01/06 08:19:43;;;;;;;17.57;8.70;;;5.00;99.90;;;;;;5027934;28;20199;-67
2022/01/06 08:22:09;;;;;;;24.10;9.27;;;5.00;99.90;;;;;;5028361;28;20172;-69
2022/01/06 08:24:34;;;;;;;25.50;9.40;;;5.00;99.90;;;;;;5028211;28;21212;-69
2022/01/06 08:27:01;;;;;;;20.37;10.47;;;4.90;99.90;;;;;;5028349;28;20189;-68
2022/01/06 08:29:27;;;;;;;23.03;10.10;;;4.80;99.90;;;;;;5028252;28;20221;-69
2022/01/06 08:31:52;;;;;;;17.37;10.60;;;4.90;99.90;;;;;;5028263;28;20956;-68
2022/01/06 08:34:18;;;;;;;27.70;11.37;;;4.90;99.90;;;;;;5027847;28;20206;-68
2022/01/06 08:36:43;;;;;;;15.60;10.23;;;4.80;99.90;;;;;;5027818;28;20194;-69
2022/01/06 08:39:09;;;;;;;20.60;9.97;;;4.90;99.90;;;;;;5028083;28;20556;-69
2022/01/06 08:41:35;;;;;;;25.10;10.80;;;4.90;99.90;;;;;;5028048;28;20186;-68
2022/01/06 08:44:00;;;;;;;20.57;9.77;;;4.90;99.90;;;;;;5027753;28;20519;-69
2022/01/06 08:46:26;;;;;;;20.70;10.70;;;4.90;99.90;;;;;;5028140;28;20446;-67
2022/01/06 08:48:51;;;;;;;15.43;9.80;;;5.00;99.90;;;;;;5030278;28;20229;-68
2022/01/06 08:51:18;;;;;;;22.30;10.50;;;5.10;99.90;;;;;;5034049;28;20186;-67
2022/01/06 08:53:44;;;;;;;15.97;9.63;;;5.10;99.90;;;;;;5033485;28;20557;-67
2022/01/06 08:56:09;;;;;;;17.00;9.23;;;5.20;99.90;;;;;;5032954;28;20424;-68
2022/01/06 08:58:35;;;;;;;17.53;9.23;;;5.30;99.90;;;;;;5030169;28;20273;-68
2022/01/06 09:01:00;;;;;;;19.90;10.03;;;5.30;99.90;;;;;;5027872;28;20220;-68
2022/01/06 09:03:26;;;;;;;16.13;9.67;;;5.30;99.90;;;;;;5024057;28;20194;-67
2022/01/06 09:05:52;;;;;;;18.40;10.00;;;5.30;99.90;;;;;;5025815;28;20277;-68
2022/01/06 09:08:17;;;;;;;21.30;11.00;;;5.30;99.90;;;;;;5027634;28;20240;-68
2022/01/06 09:10:43;;;;;;;23.67;11.30;;;5.30;99.90;;;;;;5027620;28;20179;-68
2022/01/06 09:13:08;;;;;;;19.03;11.60;;;5.40;99.90;;;;;;5027956;28;20214;-68
2022/01/06 09:15:34;;;;;;;14.30;9.97;;;5.40;99.90;;;;;;5027501;28;20179;-68
2022/01/06 09:17:59;;;;;;;23.97;11.73;;;5.40;99.90;;;;;;5027192;28;20175;-68
2022/01/06 09:20:26;;;;;;;26.33;12.67;;;5.40;99.90;;;;;;5030190;28;20178;-68
2022/01/06 09:22:51;;;;;;;28.67;12.27;;;5.20;99.90;;;;;;5031653;28;20194;-68
2022/01/06 09:25:17;;;;;;;19.73;12.30;;;5.20;99.90;;;;;;5031104;28;20414;-69
2022/01/06 09:27:43;;;;;;;25.50;13.60;;;5.30;99.90;;;;;;5031054;28;20190;-69
2022/01/06 09:30:11;;;;;;;20.67;12.07;;;5.20;99.90;;;;;;5030712;28;20221;-68
2022/01/06 09:32:37;;;;;;;24.83;12.37;;;5.20;99.90;;;;;;5031304;28;20428;-68
2022/01/06 09:35:03;;;;;;;21.90;12.70;;;5.30;99.90;;;;;;5029513;28;20480;-68
2022/01/06 09:37:29;;;;;;;21.07;12.33;;;5.40;99.90;;;;;;5029576;28;20417;-68
2022/01/06 09:39:55;;;;;;;18.70;11.60;;;5.50;99.90;;;;;;5028887;28;20574;-70
2022/01/06 09:42:21;;;;;;;19.43;11.03;;;5.60;99.90;;;;;;5029935;28;20171;-70
2022/01/06 09:44:50;;;;;;;20.93;11.20;;;5.70;99.90;;;;;;5031173;28;20421;-68
2022/01/06 09:47:17;;;;;;;23.60;11.23;;;5.70;99.90;;;;;;5030555;28;20425;-69
2022/01/06 09:49:44;;;;;;;20.83;11.27;;;5.60;99.90;;;;;;5030435;28;20471;-69
2022/01/06 09:52:12;;;;;;;28.43;11.87;;;5.60;99.90;;;;;;5031274;28;20421;-69
2022/01/06 09:54:38;;;;;;;14.67;11.43;;;5.40;99.90;;;;;;5030626;28;20507;-68
2022/01/06 09:57:05;;;;;;;19.23;11.77;;;5.40;99.90;;;;;;5030126;28;20418;-68
2022/01/06 09:59:31;;;;;;;27.23;13.50;;;5.50;99.90;;;;;;5030267;28;20460;-68
2022/01/06 10:01:58;;;;;;;32.70;14.63;;;5.60;99.90;;;;;;5030205;28;20414;-67
2022/01/06 10:04:27;;;;;;;26.93;13.80;;;5.70;99.90;;;;;;5030440;28;21016;-69
2022/01/06 10:07:07;;;;;;;23.17;13.63;;;5.80;99.90;;;;;;5031232;28;20434;-69
2022/01/06 10:09:34;;;;;;;28.30;13.23;;;5.80;99.90;;;;;;5030179;28;20446;-68
2022/01/06 10:12:03;;;;;;;21.70;14.20;;;5.90;99.90;;;;;;5030402;28;20910;-69
2022/01/06 10:14:42;;;;;;;24.37;13.80;;;5.90;99.90;;;;;;5030437;28;20464;-68
2022/01/06 10:17:10;;;;;;;20.67;13.33;;;5.90;99.90;;;;;;5028034;28;20476;-67
2022/01/06 10:19:40;;;;;;;26.47;15.27;;;5.90;99.90;;;;;;5029175;28;20437;-69
2022/01/06 10:22:12;;;;;;;23.43;13.93;;;5.90;99.90;;;;;;5030361;28;20961;-68
2022/01/06 10:24:38;;;;;;;24.57;14.60;;;6.00;99.90;;;;;;5028174;28;20841;-68
2022/01/06 10:27:07;;;;;;;23.77;15.03;;;5.90;99.90;;;;;;5029561;28;20425;-68
2022/01/06 10:29:37;;;;;;;21.53;14.80;;;5.80;99.90;;;;;;5028960;28;20484;-68
2022/01/06 10:32:07;;;;;;;25.63;14.13;;;5.80;99.90;;;;;;5023346;28;20480;-67
2022/01/06 10:34:42;;;;;;;21.93;14.80;;;5.90;99.90;;;;;;5026041;28;21015;-67
2022/01/06 10:37:23;;;;;;;24.73;14.50;;;5.90;99.90;;;;;;5026168;28;20532;-68
2022/01/06 10:39:50;;;;;;;30.23;16.83;;;6.00;99.90;;;;;;5026331;28;20445;-68
2022/01/06 10:42:17;;;;;;;26.10;15.77;;;5.90;99.90;;;;;;5030816;28;20436;-69
2022/01/06 10:45:13;;;;;;;26.37;15.13;;;6.00;99.90;;;;;;5011540;28;20406;-69
2022/01/06 10:47:46;;;;;;;25.60;15.50;;;6.10;99.90;;;;;;5030049;28;20421;-68
2022/01/06 10:50:23;;;;;;;25.47;16.47;;;6.20;99.90;;;;;;5029320;28;20447;-70
2022/01/06 10:53:01;;;;;;;25.83;16.50;;;6.10;99.90;;;;;;5010138;28;20453;-68
2022/01/06 10:55:33;;;;;;;32.23;16.73;;;6.00;99.90;;;;;;5029211;28;20461;-70
2022/01/06 10:58:02;;;;;;;28.70;16.73;;;6.10;99.90;;;;;;5026938;28;20407;-68
2022/01/06 11:00:33;;;;;;;26.67;16.60;;;6.10;99.90;;;;;;5014954;28;20935;-68
2022/01/06 11:03:20;;;;;;;28.80;16.07;;;6.00;99.90;;;;;;5032328;28;20856;-70
2022/01/06 11:05:52;;;;;;;28.40;18.13;;;6.00;99.90;;;;;;5014776;28;20500;-69
2022/01/06 11:08:21;;;;;;;30.97;17.87;;;5.70;99.90;;;;;;5032197;28;20453;-68
2022/01/06 11:11:01;;;;;;;29.73;16.60;;;5.70;99.90;;;;;;5032349;28;20488;-68
2022/01/06 11:13:30;;;;;;;26.80;17.20;;;5.70;99.90;;;;;;5014636;28;21011;-68
2022/01/06 11:15:56;;;;;;;28.93;16.73;;;5.70;99.90;;;;;;5011575;28;20411;-68
2022/01/06 11:18:22;;;;;;;27.17;18.30;;;5.80;99.90;;;;;;5012719;28;21027;-68
2022/01/06 11:20:48;;;;;;;30.20;18.40;;;5.80;99.90;;;;;;5011781;28;20446;-68
2022/01/06 11:23:22;;;;;;;27.43;17.73;;;5.80;99.90;;;;;;4994714;28;20172;-69
2022/01/06 11:25:47;;;;;;;31.17;19.40;;;5.80;99.90;;;;;;5012273;28;20430;-68
2022/01/06 11:28:14;;;;;;;36.93;18.77;;;5.80;99.90;;;;;;5012181;28;20990;-68
2022/01/06 11:30:41;;;;;;;33.27;19.00;;;5.90;99.90;;;;;;5016831;28;20627;-70
2022/01/06 11:33:08;;;;;;;30.10;18.33;;;5.60;99.90;;;;;;5031152;28;20409;-68
2022/01/06 11:35:56;;;;;;;37.47;19.60;;;5.80;99.90;;;;;;5033176;28;20414;-69
2022/01/06 11:38:25;;;;;;;30.07;19.60;;;5.90;99.90;;;;;;5016268;28;20433;-69
2022/01/06 11:41:05;;;;;;;33.13;19.40;;;6.00;99.90;;;;;;5031646;28;20409;-72
2022/01/06 11:43:41;;;;;;;38.37;20.10;;;6.10;99.90;;;;;;5032061;28;20413;-70
2022/01/06 11:46:07;;;;;;;34.60;19.40;;;6.20;99.90;;;;;;5031785;28;20512;-70
2022/01/06 11:48:43;;;;;;;34.87;19.60;;;6.20;99.90;;;;;;5031970;28;20429;-69
2022/01/06 11:51:09;;;;;;;30.40;17.93;;;6.10;99.90;;;;;;5032056;28;20763;-70
2022/01/06 11:53:34;;;;;;;32.60;19.60;;;6.00;99.90;;;;;;5031850;28;20511;-69
2022/01/06 11:56:12;;;;;;;34.53;18.00;;;6.00;99.90;;;;;;5030800;28;20198;-67
2022/01/06 11:58:37;;;;;;;32.03;18.30;;;6.00;99.90;;;;;;5031562;28;20229;-68
2022/01/06 12:01:07;;;;;;;29.57;18.13;;;6.10;99.90;;;;;;5031066;28;20973;-69
2022/01/06 12:03:46;;;;;;;30.63;18.23;;;6.20;99.90;;;;;;5031701;28;20259;-69
2022/01/06 12:06:44;;;;;;;34.03;19.77;;;6.20;99.90;;;;;;5030794;28;20489;-69
2022/01/06 12:09:22;;;;;;;27.23;17.50;;;6.20;99.90;;;;;;4950533;29;20838;-68
2022/01/06 12:12:09;;;;;;;30.67;19.33;;;6.30;99.90;;;;;;4951263;29;20460;-67
2022/01/06 12:14:35;;;;;;;32.50;19.57;;;6.30;99.90;;;;;;4952220;29;20465;-69
2022/01/06 12:17:06;;;;;;;34.67;19.97;;;6.10;99.90;;;;;;4950490;29;20421;-69
2022/01/06 12:19:33;;;;;;;36.87;20.30;;;6.10;99.90;;;;;;4950895;29;20222;-68
2022/01/06 12:21:59;;;;;;;33.07;19.73;;;6.10;99.90;;;;;;4950721;29;20960;-68
2022/01/06 12:24:24;;;;;;;31.50;21.40;;;6.10;99.90;;;;;;4950655;29;20424;-68
2022/01/06 12:26:50;;;;;;;34.90;21.30;;;6.20;99.90;;;;;;4941859;29;20484;-69
2022/01/06 12:29:19;;;;;;;38.90;19.40;;;6.20;99.90;;;;;;4950445;29;20225;-68
2022/01/06 12:31:45;;;;;;;33.60;21.27;;;6.20;99.90;;;;;;4950590;29;20997;-69
2022/01/06 12:34:12;;;;;;;28.97;18.83;;;6.20;99.90;;;;;;4939102;29;21014;-68
2022/01/06 12:36:42;;;;;;;38.17;21.40;;;6.20;99.90;;;;;;4930667;29;20491;-68
2022/01/06 12:39:15;;;;;;;32.77;20.90;;;6.20;99.90;;;;;;4941969;29;20437;-70
2022/01/06 12:41:41;;;;;;;32.90;21.30;;;6.20;99.90;;;;;;4943052;29;20531;-70
2022/01/06 12:44:08;;;;;;;35.77;21.97;;;6.40;99.90;;;;;;4965367;28;20849;-70
2022/01/06 12:46:39;;;;;;;34.83;20.80;;;6.40;99.90;;;;;;5026702;28;20422;-69
2022/01/06 12:49:07;;;;;;;29.03;17.90;;;6.50;99.90;;;;;;5030437;28;20524;-69